createdAt,value
2023-02-25T00:01:26.978Z,0.20
2023-02-25T00:03:57.874Z,0.20
2023-02-25T00:06:25.672Z,0.20
2023-02-25T00:08:54.180Z,0.20
2023-02-25T00:11:22.742Z,0.20
2023-02-25T00:13:50.399Z,0.20
2023-02-25T00:16:18.384Z,0.20
2023-02-25T00:18:46.798Z,0.20
2023-02-25T00:21:15.797Z,0.20
2023-02-25T00:23:45.208Z,0.20
2023-02-25T00:26:12.643Z,0.10
2023-02-25T00:28:42.999Z,0.10
2023-02-25T00:31:13.459Z,0.10
2023-02-25T00:33:42.174Z,0.10
2023-02-25T00:36:11.739Z,0.10
2023-02-25T00:38:38.860Z,0.10
2023-02-25T00:41:15.190Z,0.10
2023-02-25T00:43:45.192Z,0.10
2023-02-25T00:46:12.525Z,0.10
2023-02-25T00:48:39.983Z,0.10
2023-02-25T00:51:11.099Z,0.10
2023-02-25T00:53:38.866Z,0.10
2023-02-25T00:56:07.653Z,0.10
2023-02-25T00:58:38.641Z,0.10
2023-02-25T01:01:14.952Z,0.10
2023-02-25T01:03:42.017Z,0.10
2023-02-25T01:06:10.315Z,0.20
2023-02-25T01:08:37.376Z,0.10
2023-02-25T01:11:16.193Z,0.10
2023-02-25T01:13:43.624Z,0.10
2023-02-25T01:16:20.597Z,0.10
2023-02-25T01:18:48.641Z,0.10
2023-02-25T01:21:21.091Z,0.10
2023-02-25T01:23:49.300Z,0.00
2023-02-25T01:26:16.543Z,0.00
2023-02-25T01:28:43.885Z,0.00
2023-02-25T01:31:18.596Z,0.10
2023-02-25T01:33:46.049Z,0.10
2023-02-25T01:36:12.967Z,0.10
2023-02-25T01:38:39.988Z,0.10
2023-02-25T01:41:06.894Z,0.10
2023-02-25T01:43:34.746Z,0.10
2023-02-25T01:46:01.778Z,0.10
2023-02-25T01:48:33.513Z,0.20
2023-02-25T01:51:07.926Z,0.10
2023-02-25T01:53:40.476Z,0.20
2023-02-25T01:56:11.934Z,0.20
2023-02-25T01:58:39.449Z,0.10
2023-02-25T02:01:13.023Z,0.10
2023-02-25T02:03:41.757Z,0.10
2023-02-25T02:06:14.642Z,0.10
2023-02-25T02:08:44.712Z,0.10
2023-02-25T02:11:11.886Z,0.10
2023-02-25T02:13:44.242Z,0.20
2023-02-25T02:16:17.087Z,0.20
2023-02-25T02:18:50.617Z,0.20
2023-02-25T02:21:48.203Z,0.20
2023-02-25T02:24:53.193Z,0.20
2023-02-25T02:27:44.849Z,0.20
2023-02-25T02:30:17.717Z,0.20
2023-02-25T02:33:10.797Z,0.20
2023-02-25T02:36:09.726Z,0.30
2023-02-25T02:38:48.756Z,0.30
2023-02-25T02:41:18.653Z,0.30
2023-02-25T02:43:53.518Z,0.30
2023-02-25T02:46:25.114Z,0.30
2023-02-25T02:49:13.423Z,0.40
2023-02-25T02:51:51.296Z,0.30
2023-02-25T02:54:19.346Z,0.40
2023-02-25T02:56:50.050Z,0.40
2023-02-25T02:59:28.280Z,0.30
2023-02-25T03:02:08.801Z,0.40
2023-02-25T03:04:39.315Z,0.30
2023-02-25T03:07:10.402Z,0.30
2023-02-25T03:09:45.692Z,0.30
2023-02-25T03:12:12.827Z,0.30
2023-02-25T03:14:39.851Z,0.40
2023-02-25T03:17:15.005Z,0.40
2023-02-25T03:20:18.117Z,0.40
2023-02-25T03:22:48.964Z,0.50
2023-02-25T03:25:24.749Z,0.40
2023-02-25T03:27:54.877Z,0.50
2023-02-25T03:30:44.542Z,0.40
2023-02-25T03:33:26.873Z,0.40
2023-02-25T03:35:56.570Z,0.50
2023-02-25T03:38:27.397Z,0.50
2023-02-25T03:40:57.401Z,0.40
2023-02-25T03:43:30.077Z,0.40
2023-02-25T03:45:58.003Z,0.50
2023-02-25T03:48:25.990Z,0.50
2023-02-25T03:51:04.258Z,0.50
2023-02-25T03:53:34.563Z,0.50
2023-02-25T03:56:06.334Z,0.50
2023-02-25T03:58:35.576Z,0.40
2023-02-25T04:01:05.948Z,0.50
2023-02-25T04:03:33.019Z,0.50
2023-02-25T04:06:00.328Z,0.50
2023-02-25T04:08:27.232Z,0.50
2023-02-25T04:10:54.186Z,0.40
2023-02-25T04:13:21.201Z,0.40
2023-02-25T04:15:49.315Z,0.50
2023-02-25T04:18:17.309Z,0.50
2023-02-25T04:20:44.376Z,0.50
2023-02-25T04:23:16.692Z,0.50
2023-02-25T04:25:44.316Z,0.50
2023-02-25T04:28:11.649Z,0.50
2023-02-25T04:30:38.901Z,0.50
2023-02-25T04:33:05.831Z,0.60
2023-02-25T04:35:32.957Z,0.60
2023-02-25T04:37:59.864Z,0.60
2023-02-25T04:40:26.873Z,0.60
2023-02-25T04:42:54.055Z,0.60
2023-02-25T04:45:26.960Z,0.60
2023-02-25T04:47:57.809Z,0.60
2023-02-25T04:50:25.350Z,0.60
2023-02-25T04:52:52.381Z,0.60
2023-02-25T04:55:20.032Z,0.60
2023-02-25T04:57:47.049Z,0.70
2023-02-25T05:00:19.362Z,0.70
2023-02-25T05:02:48.024Z,0.70
2023-02-25T05:05:16.061Z,0.70
2023-02-25T05:07:43.337Z,0.70
2023-02-25T05:10:12.432Z,0.70
2023-02-25T05:12:39.377Z,0.70
2023-02-25T05:15:08.696Z,0.80
2023-02-25T05:17:36.230Z,0.80
2023-02-25T05:20:11.966Z,0.70
2023-02-25T05:22:39.911Z,0.70
2023-02-25T05:25:08.008Z,0.70
2023-02-25T05:27:35.665Z,0.80
2023-02-25T05:30:02.913Z,0.80
2023-02-25T05:32:33.267Z,0.70
2023-02-25T05:35:00.624Z,0.70
2023-02-25T05:37:27.677Z,0.80
2023-02-25T05:39:54.644Z,0.80
2023-02-25T05:42:21.705Z,0.80
2023-02-25T05:44:48.681Z,0.80
2023-02-25T05:47:15.958Z,0.80
2023-02-25T05:49:43.718Z,0.80
2023-02-25T05:52:11.570Z,0.80
2023-02-25T05:54:38.680Z,0.90
2023-02-25T05:57:06.644Z,0.80
2023-02-25T05:59:33.602Z,0.80
2023-02-25T06:02:00.596Z,0.80
2023-02-25T06:04:27.596Z,0.80
2023-02-25T06:06:54.665Z,0.80
2023-02-25T06:09:21.971Z,0.80
2023-02-25T06:11:49.503Z,0.80
2023-02-25T06:14:16.993Z,0.80
2023-02-25T06:16:44.698Z,0.80
2023-02-25T06:19:12.297Z,0.80
2023-02-25T06:21:39.727Z,0.80
2023-02-25T06:24:07.116Z,0.80
2023-02-25T06:26:35.496Z,0.90
2023-02-25T06:29:02.517Z,0.90
2023-02-25T06:31:29.609Z,0.80
2023-02-25T06:33:56.613Z,0.90
2023-02-25T06:36:24.541Z,0.90
2023-02-25T06:38:51.809Z,0.90
2023-02-25T06:41:21.876Z,0.90
2023-02-25T06:43:52.699Z,0.90
2023-02-25T06:46:25.673Z,0.90
2023-02-25T06:48:53.439Z,0.90
2023-02-25T06:51:20.455Z,0.90
2023-02-25T06:53:47.801Z,0.90
2023-02-25T06:56:15.974Z,0.90
2023-02-25T06:58:43.196Z,1.00
2023-02-25T07:01:13.590Z,1.00
2023-02-25T07:03:41.274Z,0.90
2023-02-25T07:06:08.987Z,1.00
2023-02-25T07:08:36.276Z,1.00
2023-02-25T07:11:19.739Z,1.00
2023-02-25T07:13:47.991Z,1.00
2023-02-25T07:16:17.067Z,1.00
2023-02-25T07:18:44.717Z,1.00
2023-02-25T07:21:12.501Z,1.00
2023-02-25T07:23:39.764Z,1.10
2023-02-25T07:26:10.410Z,1.00
2023-02-25T07:28:37.897Z,1.10
2023-02-25T07:31:14.303Z,1.10
2023-02-25T07:33:41.966Z,1.10
2023-02-25T07:36:10.188Z,1.10
2023-02-25T07:38:37.860Z,1.10
2023-02-25T07:41:09.785Z,1.10
2023-02-25T07:43:36.746Z,1.10
2023-02-25T07:46:04.594Z,1.10
2023-02-25T07:48:31.651Z,1.20
2023-02-25T07:51:09.447Z,1.20
2023-02-25T07:53:36.700Z,1.20
2023-02-25T07:56:06.019Z,1.20
2023-02-25T07:58:34.308Z,1.20
2023-02-25T08:01:03.472Z,1.20
2023-02-25T08:03:30.527Z,1.20
2023-02-25T08:05:57.544Z,1.30
2023-02-25T08:08:24.475Z,1.30
2023-02-25T08:10:51.692Z,1.30
2023-02-25T08:13:19.427Z,1.30
2023-02-25T08:15:46.612Z,1.30
2023-02-25T08:18:14.121Z,1.30
2023-02-25T08:20:47.466Z,1.30
2023-02-25T08:23:14.563Z,1.40
2023-02-25T08:25:41.554Z,1.40
2023-02-25T08:28:08.444Z,1.40
2023-02-25T08:30:35.787Z,1.40
2023-02-25T08:33:03.006Z,1.50
2023-02-25T08:35:30.193Z,1.50
2023-02-25T08:37:57.104Z,1.60
2023-02-25T08:40:24.108Z,1.60
2023-02-25T08:42:51.016Z,1.60
2023-02-25T08:45:18.014Z,1.70
2023-02-25T08:47:45.100Z,1.80
2023-02-25T08:50:12.836Z,1.70
2023-02-25T08:52:42.110Z,1.80
2023-02-25T08:55:09.997Z,1.80
2023-02-25T08:57:36.896Z,1.80
2023-02-25T09:00:06.982Z,1.90
2023-02-25T09:02:34.871Z,1.80
2023-02-25T09:05:02.024Z,1.90
2023-02-25T09:07:28.959Z,1.80
2023-02-25T09:09:55.931Z,1.90
2023-02-25T09:12:24.828Z,1.90
2023-02-25T09:14:52.049Z,1.90
2023-02-25T09:17:19.035Z,1.80
2023-02-25T09:19:45.966Z,1.80
2023-02-25T09:22:12.910Z,1.90
2023-02-25T09:24:39.856Z,1.90
2023-02-25T09:27:09.384Z,1.80
2023-02-25T09:29:38.370Z,1.90
2023-02-25T09:32:06.714Z,1.90
2023-02-25T09:34:34.047Z,1.90
2023-02-25T09:37:03.929Z,1.90
2023-02-25T09:39:31.369Z,1.90
2023-02-25T09:42:07.686Z,2.00
2023-02-25T09:44:43.475Z,2.00
2023-02-25T09:47:26.844Z,2.10
2023-02-25T09:50:04.933Z,2.00
2023-02-25T09:52:41.572Z,2.00
2023-02-25T09:55:41.108Z,1.90
2023-02-25T09:58:29.323Z,1.90
2023-02-25T10:01:11.441Z,1.90
2023-02-25T10:04:00.143Z,1.80
2023-02-25T10:06:37.810Z,1.80
2023-02-25T10:09:32.685Z,1.80
2023-02-25T10:12:13.356Z,1.90
2023-02-25T10:15:18.807Z,1.90
2023-02-25T10:18:17.441Z,1.80
2023-02-25T10:21:14.836Z,1.80
2023-02-25T10:23:59.584Z,1.80
2023-02-25T10:26:32.572Z,1.80
2023-02-25T10:29:04.949Z,1.80
2023-02-25T10:31:32.698Z,1.80
2023-02-25T10:34:14.872Z,1.80
2023-02-25T10:36:52.202Z,1.80
2023-02-25T10:39:19.198Z,1.80
2023-02-25T10:41:46.147Z,1.90
2023-02-25T10:44:13.572Z,1.90
2023-02-25T10:47:01.691Z,2.10
2023-02-25T10:49:30.529Z,2.10
2023-02-25T10:52:03.228Z,2.10
2023-02-25T10:54:48.188Z,2.20
2023-02-25T10:57:43.093Z,2.20
2023-02-25T11:00:29.594Z,2.20
2023-02-25T11:02:58.377Z,2.20
2023-02-25T11:05:41.121Z,2.10
2023-02-25T11:08:32.404Z,2.00
2023-02-25T11:11:13.858Z,2.00
2023-02-25T11:13:41.387Z,2.00
2023-02-25T11:16:12.491Z,2.00
2023-02-25T11:18:41.756Z,1.90
2023-02-25T11:21:13.156Z,2.00
2023-02-25T11:23:45.800Z,1.90
2023-02-25T11:26:39.322Z,2.00
2023-02-25T11:29:13.058Z,2.00
2023-02-25T11:31:42.033Z,2.00
2023-02-25T11:34:21.762Z,2.00
2023-02-25T11:36:50.960Z,2.00
2023-02-25T11:39:32.659Z,2.00
2023-02-25T11:42:18.104Z,2.00
2023-02-25T11:44:45.894Z,2.00
2023-02-25T11:47:26.742Z,2.00
2023-02-25T11:50:20.981Z,1.90
2023-02-25T11:53:04.738Z,1.90
2023-02-25T11:55:53.413Z,1.90
2023-02-25T11:58:39.232Z,2.00
2023-02-25T12:01:30.704Z,1.90
2023-02-25T12:04:35.119Z,1.90
2023-02-25T12:07:08.431Z,1.90
2023-02-25T12:09:35.504Z,1.90
2023-02-25T12:12:11.388Z,1.90
2023-02-25T12:14:47.234Z,1.90
2023-02-25T12:17:20.257Z,1.90
2023-02-25T12:19:58.926Z,2.00
2023-02-25T12:23:04.134Z,2.00
2023-02-25T12:25:50.380Z,1.90
2023-02-25T12:28:45.422Z,1.90
2023-02-25T12:31:37.096Z,1.90
2023-02-25T12:34:23.168Z,1.90
2023-02-25T12:37:17.401Z,2.00
2023-02-25T12:39:53.593Z,2.00
2023-02-25T12:42:45.358Z,2.00
2023-02-25T12:45:15.212Z,2.00
2023-02-25T12:48:19.533Z,2.00
2023-02-25T12:51:07.598Z,2.00
2023-02-25T12:53:42.008Z,2.10
2023-02-25T12:56:36.745Z,2.00
2023-02-25T12:59:29.603Z,2.00
2023-02-25T13:02:03.665Z,2.10
2023-02-25T13:04:33.665Z,2.00
2023-02-25T13:07:00.539Z,2.10
2023-02-25T13:09:59.033Z,2.10
2023-02-25T13:12:43.348Z,2.10
2023-02-25T13:15:20.856Z,2.10
2023-02-25T13:17:57.554Z,2.00
2023-02-25T13:20:38.628Z,2.10
2023-02-25T13:23:11.599Z,2.00
2023-02-25T13:25:50.581Z,2.10
2023-02-25T13:28:26.139Z,2.00
2023-02-25T13:31:08.861Z,2.00
2023-02-25T13:33:48.757Z,2.00
2023-02-25T13:36:49.737Z,2.00
2023-02-25T13:39:35.089Z,2.00
2023-02-25T13:42:39.502Z,2.00
2023-02-25T13:45:44.395Z,2.00
2023-02-25T13:48:20.173Z,2.00
2023-02-25T13:51:08.512Z,2.00
2023-02-25T13:53:47.534Z,2.00
2023-02-25T13:56:59.153Z,1.90
2023-02-25T13:59:52.597Z,1.90
2023-02-25T14:02:34.709Z,1.90
2023-02-25T14:05:37.721Z,1.80
2023-02-25T14:08:27.960Z,1.80
2023-02-25T14:11:33.868Z,1.80
2023-02-25T14:14:19.956Z,1.80
2023-02-25T14:17:34.418Z,1.80
2023-02-25T14:20:22.793Z,1.70
2023-02-25T14:22:59.400Z,1.70
2023-02-25T14:25:47.975Z,1.70
2023-02-25T14:28:14.868Z,1.70
2023-02-25T14:31:13.001Z,1.70
2023-02-25T14:33:57.953Z,1.70
2023-02-25T14:36:58.821Z,1.70
2023-02-25T14:39:49.087Z,1.70
2023-02-25T14:42:37.968Z,1.70
2023-02-25T14:45:10.887Z,1.70
2023-02-25T14:48:06.016Z,1.60
2023-02-25T14:50:56.877Z,1.60
2023-02-25T14:53:34.526Z,1.60
2023-02-25T14:56:16.166Z,1.60
2023-02-25T14:59:08.153Z,1.60
2023-02-25T15:02:09.050Z,1.50
2023-02-25T15:04:58.133Z,1.50
2023-02-25T15:08:02.601Z,1.50
2023-02-25T15:10:44.854Z,1.40
2023-02-25T15:13:17.550Z,1.40
2023-02-25T15:16:11.985Z,1.40
2023-02-25T15:19:26.207Z,1.40
2023-02-25T15:22:15.609Z,1.40
2023-02-25T15:24:43.162Z,1.40
2023-02-25T15:27:38.136Z,1.30
2023-02-25T15:30:07.028Z,1.30
2023-02-25T15:33:02.019Z,1.30
2023-02-25T15:35:35.113Z,1.20
2023-02-25T15:38:21.585Z,1.30
2023-02-25T15:40:53.031Z,1.30
2023-02-25T15:43:19.920Z,1.20
2023-02-25T15:45:48.654Z,1.30
2023-02-25T15:48:21.420Z,1.20
2023-02-25T15:50:48.452Z,1.20
2023-02-25T15:53:21.934Z,1.20
2023-02-25T15:55:50.320Z,1.20
2023-02-25T15:58:23.504Z,1.20
2023-02-25T16:01:00.631Z,1.10
2023-02-25T16:03:36.462Z,1.20
2023-02-25T16:06:35.825Z,1.20
2023-02-25T16:09:10.344Z,1.10
2023-02-25T16:11:37.951Z,1.10
2023-02-25T16:14:25.528Z,1.10
2023-02-25T16:17:15.972Z,1.10
2023-02-25T16:19:46.142Z,1.10
2023-02-25T16:22:18.092Z,1.00
2023-02-25T16:24:52.768Z,1.00
2023-02-25T16:27:25.868Z,1.00
2023-02-25T16:30:13.134Z,1.00
2023-02-25T16:32:43.050Z,0.90
2023-02-25T16:35:32.359Z,0.90
2023-02-25T16:38:23.772Z,0.90
2023-02-25T16:40:52.179Z,0.80
2023-02-25T16:43:33.611Z,0.80
2023-02-25T16:46:04.754Z,0.80
2023-02-25T16:48:50.346Z,0.80
2023-02-25T16:51:39.168Z,0.80
2023-02-25T16:54:13.476Z,0.70
2023-02-25T16:56:42.597Z,0.70
2023-02-25T16:59:09.521Z,0.70
2023-02-25T17:01:38.724Z,0.70
2023-02-25T17:04:20.039Z,0.60
2023-02-25T17:07:14.723Z,0.60
2023-02-25T17:09:48.009Z,0.60
2023-02-25T17:12:24.185Z,0.50
2023-02-25T17:14:53.278Z,0.50
2023-02-25T17:17:27.717Z,0.50
2023-02-25T17:19:56.794Z,0.50
2023-02-25T17:22:26.562Z,0.40
2023-02-25T17:24:57.427Z,0.40
2023-02-25T17:27:25.568Z,0.40
2023-02-25T17:29:52.885Z,0.30
2023-02-25T17:32:29.153Z,0.30
2023-02-25T17:35:00.661Z,0.30
2023-02-25T17:37:30.079Z,0.30
2023-02-25T17:39:58.048Z,0.30
2023-02-25T17:42:41.892Z,0.20
2023-02-25T17:45:52.065Z,0.30
2023-02-25T17:48:31.152Z,0.20
2023-02-25T17:51:07.806Z,0.20
2023-02-25T17:54:18.325Z,0.20
2023-02-25T17:56:45.409Z,0.20
2023-02-25T17:59:15.064Z,0.30
2023-02-25T18:01:53.731Z,0.20
2023-02-25T18:04:32.765Z,0.20
2023-02-25T18:07:29.878Z,0.20
2023-02-25T18:09:57.655Z,0.10
2023-02-25T18:12:39.134Z,0.10
2023-02-25T18:15:16.765Z,0.10
2023-02-25T18:17:58.506Z,0.10
2023-02-25T18:20:28.742Z,0.00
2023-02-25T18:23:00.134Z,0.00
2023-02-25T18:25:36.820Z,0.00
2023-02-25T18:28:06.309Z,0.00
2023-02-25T18:30:33.644Z,0.00
2023-02-25T18:33:00.726Z,0.00
2023-02-25T18:35:29.832Z,0.00
2023-02-25T18:37:58.534Z,-0.10
2023-02-25T18:40:30.576Z,-0.10
2023-02-25T18:42:58.969Z,-0.10
2023-02-25T18:45:27.966Z,-0.10
2023-02-25T18:47:56.934Z,-0.10
2023-02-25T18:50:25.546Z,-0.20
2023-02-25T18:52:52.460Z,-0.20
2023-02-25T18:55:23.015Z,-0.20
2023-02-25T18:57:50.647Z,-0.20
2023-02-25T19:00:19.614Z,-0.20
2023-02-25T19:03:00.048Z,-0.20
2023-02-25T19:05:27.157Z,-0.20
2023-02-25T19:07:54.845Z,-0.30
2023-02-25T19:10:25.196Z,-0.30
2023-02-25T19:13:00.238Z,-0.30
2023-02-25T19:15:27.312Z,-0.30
2023-02-25T19:17:54.336Z,-0.30
2023-02-25T19:20:21.660Z,-0.40
2023-02-25T19:22:53.664Z,-0.40
2023-02-25T19:25:24.897Z,-0.40
2023-02-25T19:27:53.130Z,-0.40
2023-02-25T19:30:26.277Z,-0.50
2023-02-25T19:32:53.699Z,-0.50
2023-02-25T19:35:20.638Z,-0.50
2023-02-25T19:37:47.953Z,-0.50
2023-02-25T19:40:16.158Z,-0.50
2023-02-25T19:42:44.714Z,-0.50
2023-02-25T19:45:14.629Z,-0.50
2023-02-25T19:47:41.993Z,-0.60
2023-02-25T19:50:09.587Z,-0.60
2023-02-25T19:52:36.492Z,-0.60
2023-02-25T19:55:05.018Z,-0.60
2023-02-25T19:57:32.591Z,-0.60
2023-02-25T19:59:59.652Z,-0.60
2023-02-25T20:02:26.592Z,-0.70
2023-02-25T20:04:53.469Z,-0.70
2023-02-25T20:07:20.598Z,-0.70
2023-02-25T20:09:47.635Z,-0.70
2023-02-25T20:12:14.855Z,-0.80
2023-02-25T20:14:41.789Z,-0.70
2023-02-25T20:17:08.908Z,-0.80
2023-02-25T20:19:36.228Z,-0.80
2023-02-25T20:22:05.634Z,-0.80
2023-02-25T20:24:33.393Z,-0.90
2023-02-25T20:27:00.374Z,-0.90
2023-02-25T20:29:27.995Z,-0.90
2023-02-25T20:31:57.172Z,-0.90
2023-02-25T20:34:26.332Z,-0.90
2023-02-25T20:37:10.538Z,-0.90
2023-02-25T20:39:37.422Z,-1.00
2023-02-25T20:42:14.831Z,-0.90
2023-02-25T20:44:42.018Z,-0.90
2023-02-25T20:47:25.869Z,-1.00
2023-02-25T20:49:54.445Z,-1.00
2023-02-25T20:52:21.960Z,-1.00
2023-02-25T20:54:49.942Z,-1.00
2023-02-25T20:57:19.381Z,-1.00
2023-02-25T20:59:48.372Z,-1.00
2023-02-25T21:02:16.564Z,-1.00
2023-02-25T21:04:44.244Z,-1.00
2023-02-25T21:07:11.835Z,-1.00
2023-02-25T21:09:39.295Z,-1.00
2023-02-25T21:12:07.202Z,-1.00
2023-02-25T21:14:34.381Z,-1.00
2023-02-25T21:17:01.383Z,-1.00
2023-02-25T21:19:28.480Z,-1.00
2023-02-25T21:21:56.044Z,-1.00
2023-02-25T21:24:23.257Z,-1.10
2023-02-25T21:26:50.621Z,-1.10
2023-02-25T21:29:17.567Z,-1.10
2023-02-25T21:31:45.555Z,-1.10
2023-02-25T21:34:14.192Z,-1.20
2023-02-25T21:36:41.865Z,-1.20
2023-02-25T21:39:09.608Z,-1.20
2023-02-25T21:41:38.143Z,-1.20
2023-02-25T21:44:05.371Z,-1.20
2023-02-25T21:46:32.451Z,-1.20
2023-02-25T21:48:59.844Z,-1.20
2023-02-25T21:51:29.037Z,-1.30
2023-02-25T21:53:58.148Z,-1.30
2023-02-25T21:56:26.191Z,-1.30
2023-02-25T21:58:55.629Z,-1.30
2023-02-25T22:01:26.080Z,-1.30
2023-02-25T22:03:53.365Z,-1.30
2023-02-25T22:06:23.920Z,-1.30
2023-02-25T22:08:52.344Z,-1.40
2023-02-25T22:11:22.001Z,-1.40
2023-02-25T22:13:50.715Z,-1.40
2023-02-25T22:16:18.418Z,-1.40
2023-02-25T22:18:45.602Z,-1.40
2023-02-25T22:21:14.708Z,-1.40
2023-02-25T22:23:45.994Z,-1.50
2023-02-25T22:26:16.219Z,-1.50
2023-02-25T22:28:44.207Z,-1.40
2023-02-25T22:31:13.579Z,-1.50
2023-02-25T22:33:41.619Z,-1.50
2023-02-25T22:36:09.822Z,-1.50
2023-02-25T22:38:39.362Z,-1.50
2023-02-25T22:41:18.019Z,-1.50
2023-02-25T22:43:45.556Z,-1.50
2023-02-25T22:46:16.914Z,-1.50
2023-02-25T22:48:45.614Z,-1.50
2023-02-25T22:51:13.943Z,-1.50
2023-02-25T22:53:41.318Z,-1.60
2023-02-25T22:56:10.644Z,-1.60
2023-02-25T22:58:40.581Z,-1.60
2023-02-25T23:01:09.049Z,-1.60
2023-02-25T23:03:36.467Z,-1.60
2023-02-25T23:06:03.553Z,-1.60
2023-02-25T23:08:30.856Z,-1.70
2023-02-25T23:11:17.662Z,-1.60
2023-02-25T23:13:47.504Z,-1.70
2023-02-25T23:16:20.586Z,-1.70
2023-02-25T23:18:49.247Z,-1.70
2023-02-25T23:21:19.704Z,-1.70
2023-02-25T23:23:48.609Z,-1.70
2023-02-25T23:26:17.606Z,-1.70
2023-02-25T23:28:45.156Z,-1.70
2023-02-25T23:31:26.381Z,-1.60
2023-02-25T23:33:58.985Z,-1.70
2023-02-25T23:36:27.502Z,-1.70
2023-02-25T23:38:56.436Z,-1.70
2023-02-25T23:41:23.932Z,-1.70
2023-02-25T23:43:59.210Z,-1.70
2023-02-25T23:46:28.355Z,-1.70
2023-02-25T23:48:56.463Z,-1.60
2023-02-25T23:51:24.220Z,-1.60
2023-02-25T23:54:02.184Z,-1.60
2023-02-25T23:56:31.363Z,-1.70
2023-02-25T23:58:58.804Z,-1.60
